Simmons Army Air Field
KFBG : rendu visible

Aérodrome :











RETROUVEZ-NOUS SUR...

 
LOGIN :

S'inscrire | Disclaimer

   EN    FR    IT 

 









Légende :    VFR   VFR Marginal   IFR   IFR Intensif   IFR Très Intensif
Visi : 
Plafond : 
>= 8 km
>= 3000ft
5 à 8 km
1000 à 3000 ft
1500m à 5 km
500 à 1000 ft
800 à 1500m
200 à 500 ft
< 800m
< 200 ft
Symboles :   Orages  Brouillard  Fortes neiges  Fortes précipitations  Vent > 20 kt






- Altitude de l'aérodrome : 244 ft


KFBG - Simmons Army Air Field

DERNIER METAR :
  • 250356Z AUTO 00000KT 10SM CLR 03/03 A3036 RMK AO2 SLP285 T00260026

METARs EXPIRÉS :
  • 250256Z AUTO 00000KT 10SM CLR 03/03 A3037 RMK AO2 SLP288 T00290029 50000
  • 250156Z AUTO 00000KT 10SM CLR 03/03 A3038 RMK AO2 SLP292 T00340033

TAF TAF KFBG
Valide du 25 à 02h jusqu'au 26 à 08h UTC


250200Z 2502/2608 VRB06KT 9999 FEW320 QNH3028INS
BECMG 2509/2510 12006KT 9999 SCT025 BKN250 QNH3022INS
BECMG 2517/2518 17009KT 9999 BKN025 BKN250 510043 QNH3015INS
BECMG 2602/2603 VRB06KT 9000 BR BKN009 BKN050 QNH3020INS TX15/2520Z TN01/2512Z
FIR KZDC / Amérique du Nord



MET'MAP, la Météo Aéronautique d'un coup d'oeil ! - Copyright ORBIFLY Décembre 2007 - Disclaimer

ORBIFLY MET'MAP TEAM :

Programmation & Développement : Alexandra Zaïnal
Sur une idée originale de : Baudouin d'Aumeries
Assistance à la programmation : Marc-Olivier Méhu
Soutien technique & logistique : Manuel Goepfert

Contact : metmap@orbifly.com




SOURCES & CREDITS :

   NOAA       Earth
Advisory